sensor_id;sensor_type;location;lat;lon;timestamp;pressure;altitude;pressure_sealevel;temperature;humidity
63493;BME280;49638;47.526;10.028;2023-03-23T00:00:52;91278.97;;;7.74;68.61
63493;BME280;49638;47.526;10.028;2023-03-23T00:03:54;91287.44;;;7.76;68.46
63493;BME280;49638;47.526;10.028;2023-03-23T00:06:57;91278.97;;;7.74;68.82
63493;BME280;49638;47.526;10.028;2023-03-23T00:09:57;91275.69;;;7.67;68.75
63493;BME280;49638;47.526;10.028;2023-03-23T00:12:57;91273.53;;;7.64;68.71
63493;BME280;49638;47.526;10.028;2023-03-23T00:16:02;91282.00;;;7.66;68.72
63493;BME280;49638;47.526;10.028;2023-03-23T00:19:07;91279.38;;;7.66;68.94
63493;BME280;49638;47.526;10.028;2023-03-23T00:22:08;91277.31;;;7.68;68.59
63493;BME280;49638;47.526;10.028;2023-03-23T00:25:08;91265.91;;;7.62;68.73
63493;BME280;49638;47.526;10.028;2023-03-23T00:28:08;91274.69;;;7.68;68.69
63493;BME280;49638;47.526;10.028;2023-03-23T00:31:09;91263.28;;;7.62;68.52
63493;BME280;49638;47.526;10.028;2023-03-23T00:34:09;91257.75;;;7.64;68.59
63493;BME280;49638;47.526;10.028;2023-03-23T00:37:12;91264.16;;;7.68;68.58
63493;BME280;49638;47.526;10.028;2023-03-23T00:40:12;91271.88;;;7.74;68.71
63493;BME280;49638;47.526;10.028;2023-03-23T00:43:14;91263.44;;;7.72;68.73
63493;BME280;49638;47.526;10.028;2023-03-23T00:46:16;91263.66;;;7.71;68.88
63493;BME280;49638;47.526;10.028;2023-03-23T00:49:19;91264.50;;;7.71;68.89
63493;BME280;49638;47.526;10.028;2023-03-23T00:52:20;91255.13;;;7.64;69.00
63493;BME280;49638;47.526;10.028;2023-03-23T00:55:20;91264.63;;;7.65;68.77
63493;BME280;49638;47.526;10.028;2023-03-23T00:58:20;91261.09;;;7.59;68.77
63493;BME280;49638;47.526;10.028;2023-03-23T01:01:20;91247.78;;;7.49;69.00
63493;BME280;49638;47.526;10.028;2023-03-23T01:04:21;91256.00;;;7.52;69.27
63493;BME280;49638;47.526;10.028;2023-03-23T01:07:21;91245.47;;;7.52;69.25
63493;BME280;49638;47.526;10.028;2023-03-23T01:10:23;91254.25;;;7.58;69.31
63493;BME280;49638;47.526;10.028;2023-03-23T01:13:26;91259.06;;;7.61;69.42
63493;BME280;49638;47.526;10.028;2023-03-23T01:16:26;91243.97;;;7.56;69.25
63493;BME280;49638;47.526;10.028;2023-03-23T01:19:27;91236.53;;;7.53;69.29
63493;BME280;49638;47.526;10.028;2023-03-23T01:22:27;91241.13;;;7.58;69.19
63493;BME280;49638;47.526;10.028;2023-03-23T01:25:29;91245.97;;;7.66;69.07
63493;BME280;49638;47.526;10.028;2023-03-23T01:28:30;91247.56;;;7.67;68.85
63493;BME280;49638;47.526;10.028;2023-03-23T01:31:30;91246.31;;;7.70;69.05
63493;BME280;49638;47.526;10.028;2023-03-23T01:34:31;91235.94;;;7.63;69.01
63493;BME280;49638;47.526;10.028;2023-03-23T01:37:31;91248.94;;;7.70;68.87
63493;BME280;49638;47.526;10.028;2023-03-23T01:40:32;91235.13;;;7.63;69.15
63493;BME280;49638;47.526;10.028;2023-03-23T01:43:32;91242.88;;;7.69;69.07
63493;BME280;49638;47.526;10.028;2023-03-23T01:46:34;91244.72;;;7.69;69.04
63493;BME280;49638;47.526;10.028;2023-03-23T01:49:42;91231.06;;;7.55;69.57
63493;BME280;49638;47.526;10.028;2023-03-23T01:52:44;91246.59;;;7.56;69.35
63493;BME280;49638;47.526;10.028;2023-03-23T01:55:45;91234.31;;;7.45;69.55
63493;BME280;49638;47.526;10.028;2023-03-23T01:58:51;91241.88;;;7.42;69.76
63493;BME280;49638;47.526;10.028;2023-03-23T02:01:54;91235.06;;;7.29;69.93
63493;BME280;49638;47.526;10.028;2023-03-23T02:04:59;91226.84;;;7.25;70.26
63493;BME280;49638;47.526;10.028;2023-03-23T02:08:04;91228.69;;;7.25;70.32
63493;BME280;49638;47.526;10.028;2023-03-23T02:11:12;91233.81;;;7.20;71.01
63493;BME280;49638;47.526;10.028;2023-03-23T02:14:14;91238.06;;;7.21;70.39
63493;BME280;49638;47.526;10.028;2023-03-23T02:20:38;91234.59;;;7.32;70.71
63493;BME280;49638;47.526;10.028;2023-03-23T02:27:14;91227.09;;;7.24;70.81
63493;BME280;49638;47.526;10.028;2023-03-23T02:30:39;91225.25;;;7.24;70.80
63493;BME280;49638;47.526;10.028;2023-03-23T02:33:49;91236.97;;;7.33;70.04
63493;BME280;49638;47.526;10.028;2023-03-23T02:37:07;91218.75;;;7.27;70.68
63493;BME280;49638;47.526;10.028;2023-03-23T02:40:18;91222.38;;;7.26;70.36
63493;BME280;49638;47.526;10.028;2023-03-23T02:43:22;91233.78;;;7.31;70.22
63493;BME280;49638;47.526;10.028;2023-03-23T02:46:25;91227.63;;;7.26;70.26
63493;BME280;49638;47.526;10.028;2023-03-23T02:49:29;91234.69;;;7.37;70.00
63493;BME280;49638;47.526;10.028;2023-03-23T02:52:32;91236.34;;;7.43;69.85
63493;BME280;49638;47.526;10.028;2023-03-23T02:55:34;91231.69;;;7.45;69.78
63493;BME280;49638;47.526;10.028;2023-03-23T02:58:36;91229.38;;;7.49;70.01
63493;BME280;49638;47.526;10.028;2023-03-23T03:04:38;91237.13;;;7.55;69.89
63493;BME280;49638;47.526;10.028;2023-03-23T03:11:10;91237.69;;;7.57;70.11
63493;BME280;49638;47.526;10.028;2023-03-23T03:14:19;91234.03;;;7.58;70.20
63493;BME280;49638;47.526;10.028;2023-03-23T03:17:26;91237.50;;;7.64;69.91
63493;BME280;49638;47.526;10.028;2023-03-23T03:20:28;91241.75;;;7.65;69.71
63493;BME280;49638;47.526;10.028;2023-03-23T03:23:31;91232.69;;;7.73;69.82
63493;BME280;49638;47.526;10.028;2023-03-23T03:26:32;91251.66;;;7.75;69.59
63493;BME280;49638;47.526;10.028;2023-03-23T03:29:37;91226.78;;;7.66;69.71
63493;BME280;49638;47.526;10.028;2023-03-23T03:32:44;91245.81;;;7.73;69.54
63493;BME280;49638;47.526;10.028;2023-03-23T03:35:47;91251.09;;;7.73;69.71
63493;BME280;49638;47.526;10.028;2023-03-23T03:38:50;91250.03;;;7.74;69.69
63493;BME280;49638;47.526;10.028;2023-03-23T03:41:51;91263.78;;;7.76;69.60
63493;BME280;49638;47.526;10.028;2023-03-23T03:44:51;91246.22;;;7.65;69.67
63493;BME280;49638;47.526;10.028;2023-03-23T03:47:51;91266.41;;;7.76;69.64
63493;BME280;49638;47.526;10.028;2023-03-23T03:50:52;91260.81;;;7.72;69.74
63493;BME280;49638;47.526;10.028;2023-03-23T03:53:52;91254.75;;;7.72;69.62
63493;BME280;49638;47.526;10.028;2023-03-23T03:56:53;91260.53;;;7.86;69.46
63493;BME280;49638;47.526;10.028;2023-03-23T03:59:57;91275.84;;;7.89;69.37
63493;BME280;49638;47.526;10.028;2023-03-23T04:02:57;91250.47;;;7.82;69.44
63493;BME280;49638;47.526;10.028;2023-03-23T04:06:00;91269.84;;;7.93;69.48
63493;BME280;49638;47.526;10.028;2023-03-23T04:09:00;91265.63;;;7.92;69.58
63493;BME280;49638;47.526;10.028;2023-03-23T04:12:01;91261.97;;;7.93;69.34
63493;BME280;49638;47.526;10.028;2023-03-23T04:15:02;91277.84;;;7.98;69.18
63493;BME280;49638;47.526;10.028;2023-03-23T04:18:02;91276.31;;;8.02;68.95
63493;BME280;49638;47.526;10.028;2023-03-23T04:21:04;91264.59;;;8.10;68.31
63493;BME280;49638;47.526;10.028;2023-03-23T04:24:07;91274.88;;;8.28;68.02
63493;BME280;49638;47.526;10.028;2023-03-23T04:27:07;91276.34;;;8.36;67.83
63493;BME280;49638;47.526;10.028;2023-03-23T04:30:09;91265.09;;;8.41;67.66
63493;BME280;49638;47.526;10.028;2023-03-23T04:33:11;91260.47;;;8.48;67.44
63493;BME280;49638;47.526;10.028;2023-03-23T04:36:14;91262.13;;;8.54;66.85
63493;BME280;49638;47.526;10.028;2023-03-23T04:39:16;91260.91;;;8.62;66.93
63493;BME280;49638;47.526;10.028;2023-03-23T04:42:16;91253.81;;;8.62;66.79
63493;BME280;49638;47.526;10.028;2023-03-23T04:45:19;91251.88;;;8.74;66.69
63493;BME280;49638;47.526;10.028;2023-03-23T04:48:23;91240.88;;;8.77;66.20
63493;BME280;49638;47.526;10.028;2023-03-23T04:51:25;91248.94;;;8.93;65.81
63493;BME280;49638;47.526;10.028;2023-03-23T04:54:26;91249.09;;;9.03;65.22
63493;BME280;49638;47.526;10.028;2023-03-23T04:57:29;91234.88;;;9.04;64.73
63493;BME280;49638;47.526;10.028;2023-03-23T05:00:29;91234.03;;;9.20;64.39
63493;BME280;49638;47.526;10.028;2023-03-23T05:03:29;91237.69;;;9.19;64.56
63493;BME280;49638;47.526;10.028;2023-03-23T05:06:30;91237.16;;;9.17;64.64
63493;BME280;49638;47.526;10.028;2023-03-23T05:09:30;91235.78;;;9.15;64.28
63493;BME280;49638;47.526;10.028;2023-03-23T05:12:30;91241.69;;;9.22;64.20
63493;BME280;49638;47.526;10.028;2023-03-23T05:15:31;91238.78;;;9.23;64.05
63493;BME280;49638;47.526;10.028;2023-03-23T05:18:31;91232.78;;;9.28;63.75
63493;BME280;49638;47.526;10.028;2023-03-23T05:21:32;91233.88;;;9.32;63.34
63493;BME280;49638;47.526;10.028;2023-03-23T05:24:32;91215.69;;;9.31;63.52
63493;BME280;49638;47.526;10.028;2023-03-23T05:27:33;91221.28;;;9.39;63.33
63493;BME280;49638;47.526;10.028;2023-03-23T05:30:34;91219.94;;;9.37;63.65
63493;BME280;49638;47.526;10.028;2023-03-23T05:33:34;91211.91;;;9.27;63.64
63493;BME280;49638;47.526;10.028;2023-03-23T05:36:35;91207.44;;;9.27;63.89
63493;BME280;49638;47.526;10.028;2023-03-23T05:39:36;91205.38;;;9.29;63.52
63493;BME280;49638;47.526;10.028;2023-03-23T05:42:36;91206.75;;;9.37;63.22
63493;BME280;49638;47.526;10.028;2023-03-23T05:45:36;91212.63;;;9.44;63.31
63493;BME280;49638;47.526;10.028;2023-03-23T05:48:37;91201.19;;;9.33;64.29
63493;BME280;49638;47.526;10.028;2023-03-23T05:51:38;91210.41;;;9.31;64.40
63493;BME280;49638;47.526;10.028;2023-03-23T05:54:38;91206.66;;;9.27;64.61
63493;BME280;49638;47.526;10.028;2023-03-23T05:57:39;91207.13;;;9.23;64.66
63493;BME280;49638;47.526;10.028;2023-03-23T06:00:39;91197.34;;;9.19;64.72
63493;BME280;49638;47.526;10.028;2023-03-23T06:03:39;91206.84;;;9.20;65.56
63493;BME280;49638;47.526;10.028;2023-03-23T06:06:40;91209.44;;;9.15;65.86
63493;BME280;49638;47.526;10.028;2023-03-23T06:09:42;91208.88;;;9.13;66.04
63493;BME280;49638;47.526;10.028;2023-03-23T06:12:43;91206.22;;;9.13;66.13
63493;BME280;49638;47.526;10.028;2023-03-23T06:15:43;91199.59;;;9.10;65.95
63493;BME280;49638;47.526;10.028;2023-03-23T06:18:43;91205.25;;;9.19;66.08
63493;BME280;49638;47.526;10.028;2023-03-23T06:21:44;91198.69;;;9.21;66.26
63493;BME280;49638;47.526;10.028;2023-03-23T06:24:44;91193.16;;;9.23;65.91
63493;BME280;49638;47.526;10.028;2023-03-23T06:27:45;91196.97;;;9.32;65.44
63493;BME280;49638;47.526;10.028;2023-03-23T06:30:46;91192.06;;;9.41;65.03
63493;BME280;49638;47.526;10.028;2023-03-23T06:33:46;91209.00;;;9.50;65.85
63493;BME280;49638;47.526;10.028;2023-03-23T06:36:47;91214.16;;;9.62;65.19
63493;BME280;49638;47.526;10.028;2023-03-23T06:39:47;91218.41;;;9.68;65.22
63493;BME280;49638;47.526;10.028;2023-03-23T06:42:48;91215.53;;;9.69;65.06
63493;BME280;49638;47.526;10.028;2023-03-23T06:45:48;91219.31;;;9.79;65.12
63493;BME280;49638;47.526;10.028;2023-03-23T06:48:49;91213.53;;;9.82;64.99
63493;BME280;49638;47.526;10.028;2023-03-23T06:51:50;91211.53;;;9.94;65.34
63493;BME280;49638;47.526;10.028;2023-03-23T06:54:51;91212.31;;;9.94;65.48
63493;BME280;49638;47.526;10.028;2023-03-23T06:57:51;91210.53;;;10.00;65.28
63493;BME280;49638;47.526;10.028;2023-03-23T07:00:56;91207.91;;;10.05;65.14
63493;BME280;49638;47.526;10.028;2023-03-23T07:03:56;91210.63;;;10.15;65.18
63493;BME280;49638;47.526;10.028;2023-03-23T07:06:57;91200.41;;;10.24;65.05
63493;BME280;49638;47.526;10.028;2023-03-23T07:09:57;91208.41;;;10.29;65.01
63493;BME280;49638;47.526;10.028;2023-03-23T07:12:58;91207.63;;;10.34;64.87
63493;BME280;49638;47.526;10.028;2023-03-23T07:15:59;91210.56;;;10.37;64.69
63493;BME280;49638;47.526;10.028;2023-03-23T07:19:00;91200.28;;;10.41;64.72
63493;BME280;49638;47.526;10.028;2023-03-23T07:22:00;91200.84;;;10.43;64.81
63493;BME280;49638;47.526;10.028;2023-03-23T07:25:01;91208.25;;;10.46;65.36
63493;BME280;49638;47.526;10.028;2023-03-23T07:28:02;91200.88;;;10.48;65.35
63493;BME280;49638;47.526;10.028;2023-03-23T07:31:03;91204.56;;;10.47;65.60
63493;BME280;49638;47.526;10.028;2023-03-23T07:34:03;91203.28;;;10.55;65.72
63493;BME280;49638;47.526;10.028;2023-03-23T07:37:04;91206.50;;;10.62;65.81
63493;BME280;49638;47.526;10.028;2023-03-23T07:40:05;91200.41;;;10.61;65.69
63493;BME280;49638;47.526;10.028;2023-03-23T07:43:14;91211.88;;;10.77;65.83
63493;BME280;49638;47.526;10.028;2023-03-23T07:46:14;91213.50;;;10.88;65.84
63493;BME280;49638;47.526;10.028;2023-03-23T07:49:15;91209.06;;;10.99;65.26
63493;BME280;49638;47.526;10.028;2023-03-23T07:52:15;91218.34;;;11.07;65.02
63493;BME280;49638;47.526;10.028;2023-03-23T07:55:15;91215.47;;;11.13;65.12
63493;BME280;49638;47.526;10.028;2023-03-23T07:58:19;91222.38;;;11.20;65.08
63493;BME280;49638;47.526;10.028;2023-03-23T08:01:20;91222.41;;;11.25;65.01
63493;BME280;49638;47.526;10.028;2023-03-23T08:04:20;91239.34;;;11.34;65.08
63493;BME280;49638;47.526;10.028;2023-03-23T08:07:21;91245.47;;;11.34;64.26
63493;BME280;49638;47.526;10.028;2023-03-23T08:10:22;91251.84;;;11.44;63.92
63493;BME280;49638;47.526;10.028;2023-03-23T08:13:23;91244.44;;;11.51;63.89
63493;BME280;49638;47.526;10.028;2023-03-23T08:16:24;91226.72;;;11.51;63.83
63493;BME280;49638;47.526;10.028;2023-03-23T08:19:25;91229.94;;;11.58;63.88
63493;BME280;49638;47.526;10.028;2023-03-23T08:22:26;91249.81;;;11.76;63.81
63493;BME280;49638;47.526;10.028;2023-03-23T08:25:29;91251.44;;;11.82;63.84
63493;BME280;49638;47.526;10.028;2023-03-23T08:28:34;91249.00;;;11.71;63.41
63493;BME280;49638;47.526;10.028;2023-03-23T08:31:35;91248.72;;;11.67;63.50
63493;BME280;49638;47.526;10.028;2023-03-23T08:34:37;91251.38;;;11.62;63.54
63493;BME280;49638;47.526;10.028;2023-03-23T08:37:38;91263.56;;;11.63;63.37
63493;BME280;49638;47.526;10.028;2023-03-23T08:40:39;91272.84;;;11.66;63.43
63493;BME280;49638;47.526;10.028;2023-03-23T08:43:39;91275.47;;;11.71;63.70
63493;BME280;49638;47.526;10.028;2023-03-23T08:46:39;91283.22;;;11.82;63.58
63493;BME280;49638;47.526;10.028;2023-03-23T08:49:40;91281.66;;;11.87;63.65
63493;BME280;49638;47.526;10.028;2023-03-23T08:52:40;91289.63;;;12.02;63.94
63493;BME280;49638;47.526;10.028;2023-03-23T08:55:41;91293.63;;;12.15;63.28
63493;BME280;49638;47.526;10.028;2023-03-23T08:58:42;91293.13;;;12.28;63.52
63493;BME280;49638;47.526;10.028;2023-03-23T09:01:43;91279.09;;;12.38;63.75
63493;BME280;49638;47.526;10.028;2023-03-23T09:04:43;91282.28;;;12.50;63.27
63493;BME280;49638;47.526;10.028;2023-03-23T09:07:46;91279.88;;;12.64;63.13
63493;BME280;49638;47.526;10.028;2023-03-23T09:10:47;91278.53;;;12.76;62.90
63493;BME280;49638;47.526;10.028;2023-03-23T09:13:49;91287.28;;;12.87;62.54
63493;BME280;49638;47.526;10.028;2023-03-23T09:16:50;91289.66;;;12.99;62.12
63493;BME280;49638;47.526;10.028;2023-03-23T09:19:50;91300.53;;;13.08;61.83
63493;BME280;49638;47.526;10.028;2023-03-23T09:22:53;91298.66;;;13.13;61.84
63493;BME280;49638;47.526;10.028;2023-03-23T09:25:53;91300.25;;;13.19;61.48
63493;BME280;49638;47.526;10.028;2023-03-23T09:28:54;91292.28;;;13.24;60.80
63493;BME280;49638;47.526;10.028;2023-03-23T09:31:56;91299.72;;;13.33;60.02
63493;BME280;49638;47.526;10.028;2023-03-23T09:34:57;91283.50;;;13.34;59.57
63493;BME280;49638;47.526;10.028;2023-03-23T09:37:57;91302.59;;;13.46;58.95
63493;BME280;49638;47.526;10.028;2023-03-23T09:44:22;91293.00;;;13.51;55.29
63493;BME280;49638;47.526;10.028;2023-03-23T09:51:20;91301.00;;;13.40;56.41
63493;BME280;49638;47.526;10.028;2023-03-23T09:54:26;91295.94;;;13.44;57.40
63493;BME280;49638;47.526;10.028;2023-03-23T10:01:05;91313.19;;;13.52;55.54
63493;BME280;49638;47.526;10.028;2023-03-23T10:04:19;91318.75;;;13.55;55.44
63493;BME280;49638;47.526;10.028;2023-03-23T10:07:26;91321.91;;;13.67;56.84
63493;BME280;49638;47.526;10.028;2023-03-23T10:17:22;91343.59;;;13.90;55.67
63493;BME280;49638;47.526;10.028;2023-03-23T10:24:01;91342.00;;;13.94;53.16
63493;BME280;49638;47.526;10.028;2023-03-23T10:27:29;91348.88;;;14.00;51.86
63493;BME280;49638;47.526;10.028;2023-03-23T10:30:35;91348.28;;;14.08;55.76
63493;BME280;49638;47.526;10.028;2023-03-23T10:33:46;91355.97;;;14.20;53.60
63493;BME280;49638;47.526;10.028;2023-03-23T10:37:31;91350.34;;;14.27;51.13
63493;BME280;49638;47.526;10.028;2023-03-23T10:40:34;91340.47;;;14.32;54.95
63493;BME280;49638;47.526;10.028;2023-03-23T10:43:36;91344.41;;;14.40;54.88
63493;BME280;49638;47.526;10.028;2023-03-23T10:46:44;91341.75;;;14.40;53.12
63493;BME280;49638;47.526;10.028;2023-03-23T10:49:51;91328.44;;;14.40;54.26
63493;BME280;49638;47.526;10.028;2023-03-23T10:52:56;91333.47;;;14.47;53.92
63493;BME280;49638;47.526;10.028;2023-03-23T10:55:57;91331.84;;;14.56;54.11
63493;BME280;49638;47.526;10.028;2023-03-23T10:58:58;91327.06;;;14.58;53.97
63493;BME280;49638;47.526;10.028;2023-03-23T11:02:01;91327.31;;;14.61;53.46
63493;BME280;49638;47.526;10.028;2023-03-23T11:05:15;91326.16;;;14.73;51.98
63493;BME280;49638;47.526;10.028;2023-03-23T11:08:21;91334.91;;;14.78;51.66
63493;BME280;49638;47.526;10.028;2023-03-23T11:14:31;91335.53;;;14.99;52.73
63493;BME280;49638;47.526;10.028;2023-03-23T11:17:32;91328.81;;;15.07;52.89
63493;BME280;49638;47.526;10.028;2023-03-23T11:20:36;91340.16;;;15.18;52.29
63493;BME280;49638;47.526;10.028;2023-03-23T11:23:39;91317.47;;;15.25;52.72
63493;BME280;49638;47.526;10.028;2023-03-23T11:26:44;91317.84;;;15.43;52.51
63493;BME280;49638;47.526;10.028;2023-03-23T11:29:53;91316.31;;;15.60;51.56
63493;BME280;49638;47.526;10.028;2023-03-23T11:32:55;91303.22;;;15.64;52.44
63493;BME280;49638;47.526;10.028;2023-03-23T11:36:00;91316.16;;;15.76;52.28
63493;BME280;49638;47.526;10.028;2023-03-23T11:39:01;91320.91;;;15.79;52.00
63493;BME280;49638;47.526;10.028;2023-03-23T11:42:21;91313.22;;;15.77;49.09
63493;BME280;49638;47.526;10.028;2023-03-23T11:45:34;91321.97;;;15.83;49.51
63493;BME280;49638;47.526;10.028;2023-03-23T11:48:42;91330.75;;;15.83;51.17
63493;BME280;49638;47.526;10.028;2023-03-23T11:51:48;91315.03;;;15.82;50.57
63493;BME280;49638;47.526;10.028;2023-03-23T11:54:56;91318.44;;;15.88;50.21
63493;BME280;49638;47.526;10.028;2023-03-23T11:58:00;91312.59;;;15.85;51.09
63493;BME280;49638;47.526;10.028;2023-03-23T12:04:30;91309.56;;;15.92;49.28
63493;BME280;49638;47.526;10.028;2023-03-23T12:11:24;91304.56;;;16.09;48.29
63493;BME280;49638;47.526;10.028;2023-03-23T12:18:01;91290.22;;;16.05;48.53
63493;BME280;49638;47.526;10.028;2023-03-23T12:21:24;91296.56;;;16.09;48.29
63493;BME280;49638;47.526;10.028;2023-03-23T12:24:52;91289.59;;;16.14;50.25
63493;BME280;49638;47.526;10.028;2023-03-23T12:28:21;91291.97;;;16.15;47.46
63493;BME280;49638;47.526;10.028;2023-03-23T12:34:54;91283.69;;;16.17;46.85
63493;BME280;49638;47.526;10.028;2023-03-23T12:42:11;91301.28;;;16.18;46.41
63493;BME280;49638;47.526;10.028;2023-03-23T12:48:25;91295.50;;;16.11;49.01
63493;BME280;49638;47.526;10.028;2023-03-23T12:51:47;91294.53;;;16.01;47.67
63493;BME280;49638;47.526;10.028;2023-03-23T13:01:10;91277.16;;;15.85;49.04
63493;BME280;49638;47.526;10.028;2023-03-23T13:04:18;91276.16;;;15.81;49.31
63493;BME280;49638;47.526;10.028;2023-03-23T13:07:27;91271.94;;;15.75;49.31
63493;BME280;49638;47.526;10.028;2023-03-23T13:10:33;91268.28;;;15.66;49.06
63493;BME280;49638;47.526;10.028;2023-03-23T13:13:47;91272.03;;;15.65;49.24
63493;BME280;49638;47.526;10.028;2023-03-23T13:23:33;91277.81;;;15.48;48.63
63493;BME280;49638;47.526;10.028;2023-03-23T13:26:38;91270.63;;;15.48;50.50
63493;BME280;49638;47.526;10.028;2023-03-23T13:29:44;91270.28;;;15.55;50.14
63493;BME280;49638;47.526;10.028;2023-03-23T13:32:46;91269.38;;;15.65;50.60
63493;BME280;49638;47.526;10.028;2023-03-23T13:35:48;91261.94;;;15.67;50.79
63493;BME280;49638;47.526;10.028;2023-03-23T13:38:50;91269.13;;;15.66;50.90
63493;BME280;49638;47.526;10.028;2023-03-23T13:48:25;91274.13;;;15.73;50.77
63493;BME280;49638;47.526;10.028;2023-03-23T13:51:47;91255.28;;;15.64;49.21
63493;BME280;49638;47.526;10.028;2023-03-23T13:54:49;91265.38;;;15.67;50.51
63493;BME280;49638;47.526;10.028;2023-03-23T14:04:16;91253.41;;;15.65;48.05
63493;BME280;49638;47.526;10.028;2023-03-23T14:07:18;91238.75;;;15.67;50.35
63493;BME280;49638;47.526;10.028;2023-03-23T14:10:21;91240.63;;;15.67;50.42
63493;BME280;49638;47.526;10.028;2023-03-23T14:13:30;91245.97;;;15.61;49.99
63493;BME280;49638;47.526;10.028;2023-03-23T14:16:44;91255.91;;;15.56;48.58
63493;BME280;49638;47.526;10.028;2023-03-23T14:19:51;91248.81;;;15.46;50.58
63493;BME280;49638;47.526;10.028;2023-03-23T14:22:54;91236.69;;;15.35;50.26
63493;BME280;49638;47.526;10.028;2023-03-23T14:25:58;91240.75;;;15.27;50.65
63493;BME280;49638;47.526;10.028;2023-03-23T14:29:05;91235.78;;;15.21;50.72
63493;BME280;49638;47.526;10.028;2023-03-23T14:32:17;91243.75;;;15.21;49.13
63493;BME280;49638;47.526;10.028;2023-03-23T14:35:25;91240.31;;;15.20;50.18
63493;BME280;49638;47.526;10.028;2023-03-23T14:38:26;91246.66;;;15.24;50.76
63493;BME280;49638;47.526;10.028;2023-03-23T14:41:31;91250.09;;;15.25;50.83
63493;BME280;49638;47.526;10.028;2023-03-23T14:44:34;91261.34;;;15.22;50.42
63493;BME280;49638;47.526;10.028;2023-03-23T14:47:45;91258.19;;;15.14;49.41
63493;BME280;49638;47.526;10.028;2023-03-23T14:50:51;91263.56;;;15.09;50.06
63493;BME280;49638;47.526;10.028;2023-03-23T14:53:53;91267.88;;;15.05;51.06
63493;BME280;49638;47.526;10.028;2023-03-23T14:56:54;91257.56;;;14.99;50.95
63493;BME280;49638;47.526;10.028;2023-03-23T14:59:55;91260.03;;;14.90;50.94
63493;BME280;49638;47.526;10.028;2023-03-23T15:02:59;91259.00;;;14.86;50.76
63493;BME280;49638;47.526;10.028;2023-03-23T15:06:06;91245.78;;;14.76;50.51
63493;BME280;49638;47.526;10.028;2023-03-23T15:09:15;91264.13;;;14.77;51.13
63493;BME280;49638;47.526;10.028;2023-03-23T15:12:21;91265.81;;;14.68;51.26
63493;BME280;49638;47.526;10.028;2023-03-23T15:15:31;91269.06;;;14.60;50.41
63493;BME280;49638;47.526;10.028;2023-03-23T15:18:37;91268.56;;;14.53;51.36
63493;BME280;49638;47.526;10.028;2023-03-23T15:25:03;91256.47;;;14.31;51.73
63493;BME280;49638;47.526;10.028;2023-03-23T15:31:05;91273.22;;;14.32;52.11
63493;BME280;49638;47.526;10.028;2023-03-23T15:34:06;91263.44;;;14.27;52.10
63493;BME280;49638;47.526;10.028;2023-03-23T15:37:31;91253.53;;;14.33;52.04
63493;BME280;49638;47.526;10.028;2023-03-23T15:40:37;91256.72;;;14.35;52.24
63493;BME280;49638;47.526;10.028;2023-03-23T15:43:55;91263.13;;;14.29;52.25
63493;BME280;49638;47.526;10.028;2023-03-23T15:47:38;91253.84;;;14.26;52.87
63493;BME280;49638;47.526;10.028;2023-03-23T15:53:36;91267.72;;;14.18;53.63
63493;BME280;49638;47.526;10.028;2023-03-23T15:56:39;91263.25;;;14.08;53.50
63493;BME280;49638;47.526;10.028;2023-03-23T15:59:40;91260.09;;;14.06;53.74
63493;BME280;49638;47.526;10.028;2023-03-23T16:02:40;91251.38;;;13.95;53.90
63493;BME280;49638;47.526;10.028;2023-03-23T16:05:42;91250.09;;;13.93;53.71
63493;BME280;49638;47.526;10.028;2023-03-23T16:08:43;91256.44;;;13.97;53.89
63493;BME280;49638;47.526;10.028;2023-03-23T16:11:43;91255.94;;;13.90;53.96
63493;BME280;49638;47.526;10.028;2023-03-23T16:14:43;91253.06;;;13.81;54.13
63493;BME280;49638;47.526;10.028;2023-03-23T16:17:44;91257.88;;;13.79;54.24
63493;BME280;49638;47.526;10.028;2023-03-23T16:20:46;91234.81;;;13.69;54.47
63493;BME280;49638;47.526;10.028;2023-03-23T16:23:47;91229.72;;;13.73;54.39
63493;BME280;49638;47.526;10.028;2023-03-23T16:26:47;91233.19;;;13.68;54.26
63493;BME280;49638;47.526;10.028;2023-03-23T16:29:47;91227.88;;;13.68;54.54
63493;BME280;49638;47.526;10.028;2023-03-23T16:32:47;91240.91;;;13.65;54.54
63493;BME280;49638;47.526;10.028;2023-03-23T16:35:48;91247.34;;;13.59;54.75
63493;BME280;49638;47.526;10.028;2023-03-23T16:38:48;91229.06;;;13.47;54.94
63493;BME280;49638;47.526;10.028;2023-03-23T16:41:49;91235.16;;;13.47;55.04
63493;BME280;49638;47.526;10.028;2023-03-23T16:44:49;91221.13;;;13.37;55.08
63493;BME280;49638;47.526;10.028;2023-03-23T16:47:50;91234.41;;;13.37;55.53
63493;BME280;49638;47.526;10.028;2023-03-23T16:50:51;91234.44;;;13.32;55.73
63493;BME280;49638;47.526;10.028;2023-03-23T16:53:51;91222.22;;;13.20;55.82
63493;BME280;49638;47.526;10.028;2023-03-23T16:56:51;91234.44;;;13.21;56.23
63493;BME280;49638;47.526;10.028;2023-03-23T16:59:52;91227.56;;;13.15;56.47
63493;BME280;49638;47.526;10.028;2023-03-23T17:02:54;91234.19;;;13.13;56.48
63493;BME280;49638;47.526;10.028;2023-03-23T17:05:58;91234.22;;;13.08;56.67
63493;BME280;49638;47.526;10.028;2023-03-23T17:09:00;91213.56;;;12.94;57.01
63493;BME280;49638;47.526;10.028;2023-03-23T17:12:00;91223.09;;;12.95;57.72
63493;BME280;49638;47.526;10.028;2023-03-23T17:15:01;91229.75;;;12.83;58.49
63493;BME280;49638;47.526;10.028;2023-03-23T17:18:02;91233.72;;;12.80;58.90
63493;BME280;49638;47.526;10.028;2023-03-23T17:21:02;91228.72;;;12.68;59.22
63493;BME280;49638;47.526;10.028;2023-03-23T17:24:02;91244.63;;;12.68;59.59
63493;BME280;49638;47.526;10.028;2023-03-23T17:27:03;91244.09;;;12.56;60.03
63493;BME280;49638;47.526;10.028;2023-03-23T17:30:04;91241.72;;;12.44;60.44
63493;BME280;49638;47.526;10.028;2023-03-23T17:33:05;91231.91;;;12.35;60.26
63493;BME280;49638;47.526;10.028;2023-03-23T17:36:06;91240.94;;;12.34;60.80
63493;BME280;49638;47.526;10.028;2023-03-23T17:39:06;91234.28;;;12.31;60.93